createdAt,value
2023-04-26T00:00:55.545Z,11.70
2023-04-26T00:03:23.600Z,15.70
2023-04-26T00:05:50.937Z,11.50
2023-04-26T00:08:18.084Z,15.40
2023-04-26T00:10:45.082Z,12.10
2023-04-26T00:13:12.088Z,14.00
2023-04-26T00:15:39.040Z,13.90
2023-04-26T00:18:06.186Z,11.70
2023-04-26T00:20:33.470Z,10.20
2023-04-26T00:23:00.385Z,14.40
2023-04-26T00:25:27.328Z,16.30
2023-04-26T00:27:54.329Z,11.90
2023-04-26T00:30:21.478Z,11.40
2023-04-26T00:32:48.421Z,11.70
2023-04-26T00:35:15.785Z,14.50
2023-04-26T00:37:43.283Z,10.30
2023-04-26T00:40:11.152Z,12.80
2023-04-26T00:42:39.509Z,9.40
2023-04-26T00:45:07.527Z,14.20
2023-04-26T00:47:34.685Z,16.20
2023-04-26T00:50:01.824Z,13.60
2023-04-26T00:52:28.830Z,9.10
2023-04-26T00:54:56.435Z,12.70
2023-04-26T00:57:23.414Z,12.00
2023-04-26T00:59:50.366Z,11.40
2023-04-26T01:02:17.791Z,10.10
2023-04-26T01:04:45.812Z,11.40
2023-04-26T01:07:12.761Z,13.00
2023-04-26T01:09:39.733Z,10.00
2023-04-26T01:12:07.449Z,10.60
2023-04-26T01:14:36.826Z,10.10
2023-04-26T01:17:03.958Z,12.10
2023-04-26T01:19:31.018Z,12.50
2023-04-26T01:21:58.334Z,12.00
2023-04-26T01:24:25.601Z,9.00
2023-04-26T01:26:52.520Z,13.80
2023-04-26T01:29:21.991Z,10.30
2023-04-26T01:31:49.071Z,12.70
2023-04-26T01:34:16.193Z,11.40
2023-04-26T01:36:46.164Z,11.70
2023-04-26T01:39:13.719Z,10.10
2023-04-26T01:41:40.767Z,9.60
2023-04-26T01:44:07.864Z,13.40
2023-04-26T01:46:34.964Z,10.90
2023-04-26T01:49:01.968Z,8.60
2023-04-26T01:51:29.886Z,10.90
2023-04-26T01:53:56.871Z,11.00
2023-04-26T01:56:25.266Z,12.40
2023-04-26T01:58:55.715Z,13.00
2023-04-26T02:01:23.631Z,16.20
2023-04-26T02:03:51.457Z,10.10
2023-04-26T02:06:20.381Z,17.50
2023-04-26T02:08:47.421Z,10.50
2023-04-26T02:11:14.374Z,7.50
2023-04-26T02:13:41.331Z,9.50
2023-04-26T02:16:08.400Z,13.80
2023-04-26T02:18:35.492Z,13.70
2023-04-26T02:21:02.487Z,12.30
2023-04-26T02:23:31.469Z,10.60
2023-04-26T02:25:58.464Z,9.80
2023-04-26T02:28:25.453Z,11.00
2023-04-26T02:30:56.882Z,7.90
2023-04-26T02:33:24.480Z,9.10
2023-04-26T02:35:51.681Z,12.90
2023-04-26T02:38:19.258Z,14.30
2023-04-26T02:40:46.325Z,10.10
2023-04-26T02:43:13.608Z,13.50
2023-04-26T02:45:43.802Z,11.10
2023-04-26T02:48:12.279Z,9.40
2023-04-26T02:50:39.342Z,13.30
2023-04-26T02:53:06.367Z,11.90
2023-04-26T02:55:33.764Z,12.20
2023-04-26T02:58:00.913Z,11.10
2023-04-26T03:00:28.725Z,12.00
2023-04-26T03:02:57.180Z,11.70
2023-04-26T03:05:24.769Z,10.60
2023-04-26T03:07:52.816Z,10.70
2023-04-26T03:10:19.881Z,11.80
2023-04-26T03:12:46.887Z,10.30
2023-04-26T03:15:15.442Z,10.60
2023-04-26T03:17:43.474Z,10.90
2023-04-26T03:20:11.856Z,12.60
2023-04-26T03:22:39.306Z,12.90
2023-04-26T03:25:07.946Z,9.60
2023-04-26T03:27:35.212Z,11.70
2023-04-26T03:30:02.232Z,11.10
2023-04-26T03:32:29.958Z,10.80
2023-04-26T03:34:57.064Z,8.90
2023-04-26T03:37:24.097Z,11.50
2023-04-26T03:39:56.778Z,10.10
2023-04-26T03:42:23.970Z,9.30
2023-04-26T03:44:51.071Z,11.40
2023-04-26T03:47:18.265Z,10.70
2023-04-26T03:49:45.356Z,13.80
2023-04-26T03:52:12.376Z,12.30
2023-04-26T03:54:39.430Z,10.00
2023-04-26T03:57:06.537Z,14.80
2023-04-26T03:59:33.531Z,13.40
2023-04-26T04:02:01.119Z,12.20
2023-04-26T04:04:28.252Z,11.00
2023-04-26T04:06:56.109Z,12.00
2023-04-26T04:09:23.111Z,10.50
2023-04-26T04:11:50.089Z,12.70
2023-04-26T04:14:17.040Z,13.70
2023-04-26T04:16:44.016Z,15.10
2023-04-26T04:19:11.748Z,14.00
2023-04-26T04:21:40.415Z,11.50
2023-04-26T04:24:08.149Z,11.60
2023-04-26T04:26:35.210Z,13.00
2023-04-26T04:29:09.035Z,10.50
2023-04-26T04:31:37.156Z,12.90
2023-04-26T04:34:04.519Z,13.50
2023-04-26T04:36:32.597Z,11.30
2023-04-26T04:38:59.706Z,12.50
2023-04-26T04:41:27.951Z,14.00
2023-04-26T04:43:55.226Z,11.00
2023-04-26T04:46:22.871Z,9.10
2023-04-26T04:48:50.191Z,9.90
2023-04-26T04:51:17.524Z,12.60
2023-04-26T04:53:44.554Z,12.80
2023-04-26T04:56:12.174Z,12.00
2023-04-26T04:58:41.663Z,14.70
2023-04-26T05:01:10.064Z,11.30
2023-04-26T05:03:50.275Z,13.90
2023-04-26T05:06:17.933Z,10.50
2023-04-26T05:08:45.292Z,10.90
2023-04-26T05:11:12.287Z,9.40
2023-04-26T05:13:39.261Z,11.70
2023-04-26T05:16:06.624Z,12.00
2023-04-26T05:18:33.639Z,9.70
2023-04-26T05:21:00.833Z,10.30
2023-04-26T05:23:27.924Z,14.20
2023-04-26T05:25:54.959Z,14.20
2023-04-26T05:28:40.714Z,10.40
2023-04-26T05:34:04.468Z,9.90
2023-04-26T05:36:36.747Z,12.50
2023-04-26T05:39:05.994Z,11.10
2023-04-26T05:41:32.903Z,12.20
2023-04-26T05:44:00.031Z,11.50
2023-04-26T05:46:27.110Z,13.70
2023-04-26T05:48:55.372Z,13.60
2023-04-26T05:51:22.576Z,10.80
2023-04-26T05:53:50.235Z,12.40
2023-04-26T05:56:17.604Z,14.10
2023-04-26T05:58:44.563Z,8.90
2023-04-26T06:01:12.594Z,10.40
2023-04-26T06:03:39.771Z,12.50
2023-04-26T06:06:08.133Z,10.60
2023-04-26T06:08:37.304Z,9.10
2023-04-26T06:11:04.269Z,11.80
2023-04-26T06:13:31.294Z,11.10
2023-04-26T06:15:59.616Z,9.70
2023-04-26T06:18:26.608Z,7.20
2023-04-26T06:20:53.558Z,8.40
2023-04-26T06:23:20.639Z,13.60
2023-04-26T06:25:47.758Z,11.50
2023-04-26T06:28:15.601Z,11.20
2023-04-26T06:30:42.939Z,10.40
2023-04-26T06:33:09.954Z,7.00
2023-04-26T06:35:42.734Z,10.20
2023-04-26T06:38:12.781Z,10.40
2023-04-26T06:40:40.712Z,10.70
2023-04-26T06:43:08.217Z,8.80
2023-04-26T06:45:44.446Z,10.60
2023-04-26T06:48:12.185Z,10.10
2023-04-26T06:50:40.243Z,9.70
2023-04-26T06:53:08.287Z,11.50
2023-04-26T06:55:35.489Z,7.80
2023-04-26T06:58:02.487Z,9.60
2023-04-26T07:00:30.410Z,12.90
2023-04-26T07:02:59.206Z,11.00
2023-04-26T07:05:26.372Z,11.10
2023-04-26T07:07:53.376Z,12.40
2023-04-26T07:10:21.307Z,9.60
2023-04-26T07:12:48.333Z,13.20
2023-04-26T07:15:15.774Z,12.40
2023-04-26T07:17:42.817Z,11.90
2023-04-26T07:20:10.580Z,8.90
2023-04-26T07:22:37.608Z,10.40
2023-04-26T07:25:05.517Z,11.60
2023-04-26T07:27:32.614Z,11.00
2023-04-26T07:30:00.765Z,13.10
2023-04-26T07:32:27.810Z,17.70
2023-04-26T07:34:54.854Z,10.50
2023-04-26T07:37:21.990Z,13.10
2023-04-26T07:39:49.077Z,11.40
2023-04-26T07:42:16.654Z,11.90
2023-04-26T07:44:44.528Z,14.40
2023-04-26T07:47:14.692Z,15.20
2023-04-26T07:49:42.703Z,10.70
2023-04-26T07:52:09.702Z,12.40
2023-04-26T07:54:37.218Z,11.40
2023-04-26T07:57:04.353Z,13.80
2023-04-26T07:59:31.573Z,13.40
2023-04-26T08:01:58.599Z,12.90
2023-04-26T08:04:34.304Z,11.50
2023-04-26T08:07:02.176Z,13.20
2023-04-26T08:09:30.922Z,15.40
2023-04-26T08:11:58.227Z,13.70
2023-04-26T08:14:25.504Z,15.20
2023-04-26T08:16:52.595Z,12.80
2023-04-26T08:19:19.616Z,15.60
2023-04-26T08:21:46.557Z,15.60
2023-04-26T08:24:13.679Z,9.90
2023-04-26T08:26:41.331Z,11.60
2023-04-26T08:29:08.274Z,13.40
2023-04-26T08:31:36.300Z,13.40
2023-04-26T08:34:03.381Z,12.90
2023-04-26T08:36:32.570Z,11.90
2023-04-26T08:39:00.005Z,10.40
2023-04-26T08:41:27.002Z,12.30
2023-04-26T08:43:56.171Z,12.00
2023-04-26T08:46:23.210Z,10.90
2023-04-26T08:49:01.038Z,10.00
2023-04-26T08:51:29.051Z,12.30
2023-04-26T08:53:56.252Z,11.60
2023-04-26T08:56:24.113Z,13.30
2023-04-26T08:58:52.137Z,9.90
2023-04-26T09:01:19.160Z,10.50
2023-04-26T09:03:47.158Z,11.10
2023-04-26T09:06:15.351Z,9.10
2023-04-26T09:08:42.435Z,12.60
2023-04-26T09:11:09.401Z,12.00
2023-04-26T09:13:37.313Z,11.10
2023-04-26T09:16:05.247Z,11.20
2023-04-26T09:18:34.097Z,12.50
2023-04-26T09:21:03.005Z,11.70
2023-04-26T09:23:30.020Z,15.00
2023-04-26T09:25:56.939Z,11.60
2023-04-26T09:28:27.358Z,13.40
2023-04-26T09:30:54.351Z,11.20
2023-04-26T09:33:21.493Z,8.00
2023-04-26T09:35:48.547Z,8.50
2023-04-26T09:38:17.490Z,10.40
2023-04-26T09:40:46.259Z,8.00
2023-04-26T09:43:14.146Z,12.00
2023-04-26T09:45:58.150Z,12.70
2023-04-26T09:48:30.383Z,11.80
2023-04-26T09:50:57.741Z,12.00
2023-04-26T09:53:28.530Z,13.60
2023-04-26T09:55:56.262Z,14.20
2023-04-26T09:58:23.529Z,8.00
2023-04-26T10:00:51.437Z,10.80
2023-04-26T10:03:20.267Z,8.90
2023-04-26T10:05:48.036Z,10.10
2023-04-26T10:08:15.269Z,8.60
2023-04-26T10:10:42.834Z,13.00
2023-04-26T10:13:09.774Z,10.50
2023-04-26T10:15:38.331Z,9.10
2023-04-26T10:18:05.665Z,9.70
2023-04-26T10:20:32.629Z,8.90
2023-04-26T10:23:03.030Z,8.70
2023-04-26T10:25:40.576Z,14.70
2023-04-26T10:28:07.853Z,9.40
2023-04-26T10:30:53.837Z,9.30
2023-04-26T10:33:21.610Z,11.20
2023-04-26T10:36:04.088Z,11.20
2023-04-26T10:38:31.415Z,15.50
2023-04-26T10:41:31.147Z,10.90
2023-04-26T10:44:00.078Z,10.70
2023-04-26T10:46:36.003Z,12.00
2023-04-26T10:49:20.035Z,9.40
2023-04-26T10:52:12.709Z,9.00
2023-04-26T10:54:47.465Z,9.40
2023-04-26T10:57:14.739Z,9.90
2023-04-26T11:00:10.998Z,11.30
2023-04-26T11:02:57.551Z,10.10
2023-04-26T11:05:34.449Z,13.00
2023-04-26T11:08:21.362Z,9.60
2023-04-26T11:10:52.253Z,16.30
2023-04-26T11:13:20.685Z,12.40
2023-04-26T11:15:53.407Z,11.40
2023-04-26T11:18:23.961Z,12.10
2023-04-26T11:20:50.921Z,14.50
2023-04-26T11:23:19.433Z,14.00
2023-04-26T11:25:46.482Z,15.90
2023-04-26T11:28:13.494Z,16.70
2023-04-26T11:30:40.504Z,16.10
2023-04-26T11:33:07.860Z,12.50
2023-04-26T11:35:39.115Z,15.90
2023-04-26T11:38:06.322Z,15.60
2023-04-26T11:40:33.465Z,17.50
2023-04-26T11:43:02.208Z,14.10
2023-04-26T11:45:29.381Z,13.80
2023-04-26T11:47:56.394Z,13.20
2023-04-26T11:50:26.940Z,14.70
2023-04-26T11:52:55.912Z,10.30
2023-04-26T11:55:30.865Z,14.40
2023-04-26T11:57:58.588Z,17.30
2023-04-26T12:00:25.896Z,19.20
2023-04-26T12:02:53.552Z,17.70
2023-04-26T12:05:33.498Z,15.00
2023-04-26T12:08:00.953Z,14.70
2023-04-26T12:10:34.046Z,12.90
2023-04-26T12:13:01.174Z,13.90
2023-04-26T12:15:35.052Z,20.50
2023-04-26T12:18:10.505Z,17.70
2023-04-26T12:20:39.034Z,17.80
2023-04-26T12:23:32.930Z,15.00
2023-04-26T12:26:03.959Z,20.00
2023-04-26T12:28:31.177Z,18.80
2023-04-26T12:30:58.160Z,14.20
2023-04-26T12:33:25.600Z,14.00
2023-04-26T12:35:52.808Z,12.50
2023-04-26T12:38:19.984Z,11.80
2023-04-26T12:40:47.155Z,12.70
2023-04-26T12:43:15.947Z,10.90
2023-04-26T12:45:42.933Z,13.30
2023-04-26T12:48:10.020Z,14.70
2023-04-26T12:50:37.385Z,10.20
2023-04-26T12:53:04.446Z,16.50
2023-04-26T12:55:32.948Z,13.60
2023-04-26T12:58:00.237Z,10.40
2023-04-26T13:00:27.279Z,11.30
2023-04-26T13:02:54.473Z,14.50
2023-04-26T13:05:24.768Z,11.60
2023-04-26T13:07:51.974Z,12.90
2023-04-26T13:10:19.051Z,12.60
2023-04-26T13:12:46.356Z,13.40
2023-04-26T13:17:43.064Z,16.10
2023-04-26T13:20:11.527Z,14.50
2023-04-26T13:22:42.045Z,12.90
2023-04-26T13:25:10.290Z,10.50
2023-04-26T13:27:37.296Z,9.50
2023-04-26T13:30:04.716Z,9.40
2023-04-26T13:32:32.209Z,8.40
2023-04-26T13:34:59.453Z,9.10
2023-04-26T13:37:27.127Z,9.80
2023-04-26T13:39:54.480Z,8.30
2023-04-26T13:42:21.501Z,12.50
2023-04-26T13:44:48.434Z,12.50
2023-04-26T13:47:17.706Z,9.40
2023-04-26T13:49:44.993Z,10.20
2023-04-26T13:52:12.183Z,10.30
2023-04-26T13:54:42.073Z,14.50
2023-04-26T13:57:09.064Z,13.00
2023-04-26T13:59:36.168Z,14.20
2023-04-26T14:02:03.881Z,12.70
2023-04-26T14:04:31.146Z,11.30
2023-04-26T14:06:58.775Z,11.50
2023-04-26T14:09:25.810Z,8.20
2023-04-26T14:12:00.821Z,9.50
2023-04-26T14:14:34.854Z,10.70
2023-04-26T14:17:03.906Z,12.50
2023-04-26T14:19:31.418Z,15.20
2023-04-26T14:21:58.431Z,15.30
2023-04-26T14:24:25.570Z,19.00
2023-04-26T14:26:52.533Z,16.00
2023-04-26T14:29:19.472Z,13.00
2023-04-26T14:31:46.637Z,14.20
2023-04-26T14:34:13.667Z,14.30
2023-04-26T14:36:40.736Z,12.60
2023-04-26T14:39:07.894Z,11.10
2023-04-26T14:41:34.952Z,10.40
2023-04-26T14:44:02.011Z,13.00
2023-04-26T14:46:29.119Z,9.90
2023-04-26T14:48:57.034Z,11.50
2023-04-26T14:51:24.195Z,7.10
2023-04-26T14:53:51.170Z,10.30
2023-04-26T14:56:18.331Z,12.00
2023-04-26T14:58:45.274Z,12.00
2023-04-26T15:01:12.349Z,10.40
2023-04-26T15:03:39.640Z,7.50
2023-04-26T15:06:12.312Z,9.50
2023-04-26T15:08:39.307Z,8.30
2023-04-26T15:11:06.614Z,9.40
2023-04-26T15:13:33.560Z,12.60
2023-04-26T15:16:08.061Z,10.30
2023-04-26T15:18:36.338Z,13.30
2023-04-26T15:21:03.424Z,13.30
2023-04-26T15:23:30.722Z,21.70
2023-04-26T15:26:02.235Z,23.80
2023-04-26T15:28:29.404Z,30.10
2023-04-26T15:31:08.911Z,29.40
2023-04-26T15:33:36.546Z,30.80
2023-04-26T15:36:03.772Z,22.00
2023-04-26T15:38:30.833Z,18.60
2023-04-26T15:40:59.641Z,21.50
2023-04-26T15:43:27.273Z,22.30
2023-04-26T15:45:54.438Z,20.10
2023-04-26T15:48:22.128Z,16.80
2023-04-26T15:50:50.697Z,12.80
2023-04-26T15:53:17.905Z,14.70
2023-04-26T15:55:45.230Z,14.40
2023-04-26T15:58:12.178Z,14.40
2023-04-26T16:00:39.918Z,14.10
2023-04-26T16:03:07.401Z,12.40
2023-04-26T16:05:34.677Z,13.50
2023-04-26T16:08:01.837Z,14.30
2023-04-26T16:10:29.372Z,13.90
2023-04-26T16:12:56.641Z,14.50
2023-04-26T16:15:23.683Z,13.60
2023-04-26T16:17:51.474Z,11.20
2023-04-26T16:20:20.357Z,12.30
2023-04-26T16:22:47.422Z,14.40
2023-04-26T16:25:16.423Z,17.00
2023-04-26T16:27:46.404Z,17.40
2023-04-26T16:30:13.804Z,12.20
2023-04-26T16:32:40.913Z,12.90
2023-04-26T16:35:08.977Z,14.70
2023-04-26T16:37:35.949Z,17.90
2023-04-26T16:40:05.199Z,19.30
2023-04-26T16:42:32.251Z,17.30
2023-04-26T16:44:59.280Z,14.30
2023-04-26T16:47:26.962Z,14.20
2023-04-26T16:49:53.970Z,14.80
2023-04-26T16:52:21.065Z,13.70
2023-04-26T16:54:48.037Z,14.50
2023-04-26T16:57:14.965Z,12.10
2023-04-26T16:59:42.260Z,15.40
2023-04-26T17:02:09.530Z,12.40
2023-04-26T17:04:36.692Z,13.40
2023-04-26T17:07:04.214Z,21.20
2023-04-26T17:09:31.478Z,18.30
2023-04-26T17:11:58.556Z,14.50
2023-04-26T17:14:25.678Z,11.40
2023-04-26T17:16:56.077Z,19.90
2023-04-26T17:19:23.274Z,22.60
2023-04-26T17:21:50.306Z,23.60
2023-04-26T17:24:20.875Z,31.50
2023-04-26T17:26:48.135Z,28.50
2023-04-26T17:29:15.177Z,39.40
2023-04-26T17:31:42.231Z,50.80
2023-04-26T17:34:09.586Z,32.10
2023-04-26T17:36:36.837Z,20.30
2023-04-26T17:39:03.847Z,19.20
2023-04-26T17:41:30.951Z,16.60
2023-04-26T17:43:58.013Z,13.90
2023-04-26T17:46:24.990Z,14.60
2023-04-26T17:48:52.060Z,11.90
2023-04-26T17:51:19.114Z,13.70
2023-04-26T17:53:46.579Z,15.50
2023-04-26T17:56:13.637Z,14.30
2023-04-26T17:58:40.742Z,14.60
2023-04-26T18:01:07.980Z,13.60
2023-04-26T18:03:36.072Z,13.60
2023-04-26T18:06:03.706Z,11.90
2023-04-26T18:08:30.786Z,14.90
2023-04-26T18:10:58.261Z,14.40
2023-04-26T18:13:25.251Z,14.10
2023-04-26T18:15:54.289Z,11.60
2023-04-26T18:18:21.356Z,16.50
2023-04-26T18:20:48.394Z,16.40
2023-04-26T18:23:16.543Z,16.30
2023-04-26T18:25:43.613Z,14.60
2023-04-26T18:28:10.729Z,15.00
2023-04-26T18:30:37.659Z,15.00
2023-04-26T18:33:05.227Z,16.00
2023-04-26T18:35:32.330Z,14.50
2023-04-26T18:37:59.275Z,13.90
2023-04-26T18:40:26.232Z,14.10
2023-04-26T18:42:53.371Z,13.80
2023-04-26T18:45:20.294Z,13.50
2023-04-26T18:47:47.616Z,14.00
2023-04-26T18:50:14.617Z,14.10
2023-04-26T18:52:41.625Z,13.90
2023-04-26T18:55:09.378Z,13.80
2023-04-26T18:57:36.423Z,13.00
2023-04-26T19:00:06.659Z,13.50
2023-04-26T19:02:36.506Z,14.90
2023-04-26T19:05:05.271Z,11.00
2023-04-26T19:07:32.505Z,15.50
2023-04-26T19:10:01.331Z,14.80
2023-04-26T19:12:54.352Z,16.40
2023-04-26T19:15:21.628Z,15.40
2023-04-26T19:17:50.373Z,15.50
2023-04-26T19:20:17.695Z,15.50
2023-04-26T19:22:46.339Z,14.20
2023-04-26T19:25:14.080Z,15.00
2023-04-26T19:27:41.248Z,14.40
2023-04-26T19:30:09.818Z,15.50
2023-04-26T19:32:37.329Z,16.80
2023-04-26T19:35:06.211Z,15.50
2023-04-26T19:37:33.218Z,12.30
2023-04-26T19:40:00.513Z,12.20
2023-04-26T19:42:27.926Z,13.30
2023-04-26T19:44:55.078Z,12.00
2023-04-26T19:47:22.035Z,17.40
2023-04-26T19:49:51.768Z,15.40
2023-04-26T19:52:20.005Z,17.60
2023-04-26T19:54:46.946Z,12.20
2023-04-26T19:57:13.958Z,13.30
2023-04-26T19:59:41.002Z,15.40
2023-04-26T20:02:08.129Z,15.90
2023-04-26T20:04:36.355Z,16.10
2023-04-26T20:07:05.199Z,16.20
2023-04-26T20:09:32.590Z,16.40
2023-04-26T20:12:00.316Z,16.50
2023-04-26T20:14:30.544Z,16.30
2023-04-26T20:17:02.273Z,18.30
2023-04-26T20:19:29.686Z,20.20
2023-04-26T20:21:57.075Z,21.40
2023-04-26T20:27:16.862Z,25.70
2023-04-26T20:29:46.999Z,25.80
2023-04-26T20:32:14.168Z,25.50
2023-04-26T20:34:41.599Z,25.70
2023-04-26T20:37:08.540Z,30.40
2023-04-26T20:39:35.509Z,33.10
2023-04-26T20:42:02.500Z,27.40
2023-04-26T20:44:30.057Z,24.30
2023-04-26T20:46:57.540Z,22.50
2023-04-26T20:49:24.511Z,23.50
2023-04-26T20:51:51.747Z,21.30
2023-04-26T20:54:18.680Z,23.00
2023-04-26T20:56:45.709Z,22.80
2023-04-26T20:59:12.760Z,23.30
2023-04-26T21:01:39.818Z,22.10
2023-04-26T21:04:06.886Z,23.30
2023-04-26T21:06:33.887Z,23.60
2023-04-26T21:09:00.826Z,28.40
2023-04-26T21:11:27.960Z,23.80
2023-04-26T21:13:54.975Z,24.40
2023-04-26T21:16:22.053Z,20.80
2023-04-26T21:18:49.227Z,22.60
2023-04-26T21:21:16.181Z,22.70
2023-04-26T21:23:46.330Z,23.50
2023-04-26T21:26:13.614Z,22.40
2023-04-26T21:28:40.733Z,22.40
2023-04-26T21:31:07.906Z,23.20
2023-04-26T21:33:34.991Z,21.70
2023-04-26T21:36:01.990Z,20.70
2023-04-26T21:38:28.982Z,21.80
2023-04-26T21:40:56.087Z,20.60
2023-04-26T21:43:23.065Z,24.10
2023-04-26T21:45:52.405Z,25.10
2023-04-26T21:48:19.422Z,25.00
2023-04-26T21:50:49.020Z,26.60
2023-04-26T21:53:16.761Z,25.90
2023-04-26T21:55:44.043Z,24.90
2023-04-26T21:58:11.080Z,24.40
2023-04-26T22:00:38.132Z,23.00
2023-04-26T22:03:05.427Z,23.50
2023-04-26T22:05:32.472Z,20.30
2023-04-26T22:07:59.477Z,22.70
2023-04-26T22:10:26.960Z,22.00
2023-04-26T22:12:53.877Z,22.80
2023-04-26T22:15:21.248Z,21.20
2023-04-26T22:17:48.250Z,21.60
2023-04-26T22:20:15.233Z,22.00
2023-04-26T22:22:42.321Z,20.00
2023-04-26T22:25:09.923Z,16.60
2023-04-26T22:27:36.933Z,11.10
2023-04-26T22:30:20.359Z,10.00
2023-04-26T22:32:54.683Z,6.30
2023-04-26T22:35:25.284Z,6.30
2023-04-26T22:37:52.499Z,5.60
2023-04-26T22:40:19.618Z,4.10
2023-04-26T22:42:46.650Z,3.80
2023-04-26T22:45:14.014Z,2.90
2023-04-26T22:47:41.051Z,2.30
2023-04-26T22:50:08.361Z,2.80
2023-04-26T22:52:35.529Z,4.40
2023-04-26T22:55:02.644Z,4.80
2023-04-26T22:57:30.529Z,4.10
2023-04-26T22:59:57.451Z,1.90
2023-04-26T23:02:24.497Z,2.50
2023-04-26T23:04:51.530Z,4.20
2023-04-26T23:07:18.666Z,2.10
2023-04-26T23:09:45.787Z,4.50
2023-04-26T23:12:17.237Z,1.50
2023-04-26T23:14:44.212Z,3.60
2023-04-26T23:17:12.241Z,3.80
2023-04-26T23:19:39.468Z,2.20
2023-04-26T23:22:06.597Z,2.40
2023-04-26T23:24:33.529Z,2.40
2023-04-26T23:27:01.436Z,4.90
2023-04-26T23:29:28.407Z,2.90
2023-04-26T23:31:55.655Z,2.30
2023-04-26T23:34:22.679Z,3.30
2023-04-26T23:36:49.667Z,5.50
2023-04-26T23:39:17.086Z,3.80
2023-04-26T23:41:44.109Z,2.10
2023-04-26T23:44:11.357Z,4.40
2023-04-26T23:46:38.313Z,2.20
2023-04-26T23:49:05.287Z,2.10
2023-04-26T23:51:32.939Z,2.50
2023-04-26T23:53:59.923Z,2.30
2023-04-26T23:56:26.897Z,1.90
2023-04-26T23:58:54.628Z,2.30
